x

West Sea Otter (46204) Wave Buoy

2:00 - Fri 21st Jul 2017 All times are PDT. -7 hours from GMT.

  • Sig Wave height 2.6ft
  • Peak Period 4s
  • Wind
    20mph, 25mph gusts
  • Sea Temp 59°f
  • Aire Temp 59°f
  • Sea Pressure 1017.5mb
  • West Sea Otter
  • West Sea Otter

More Historic Weather Station data

Upgrade to MSW Pro to gain access to the past 30 days of data for over 8000 Wavebouys and Weather Stations around the globe.

Join Pro

Comparision Forecast

View Surf forecast
   
vie 07/21 2:00 2.5ft 4s 20 25 mph 1017.5mb 59f 59f
1:00 2.5ft 4s 16 20 mph 1017.7mb 58f 59f
12:00 2.5ft 4s 18 22 mph 1017.8mb 58f 59f
jue 07/20 11:00 2.5ft 3s 18 22 mph 1018mb 58f 59f
10:00 1.6ft 3s 16 20 mph 1018.3mb 59f 59f
9:00 1.3ft 14s 18 20 mph 1018.2mb 60f 59f
8:00 1.3ft 14s 13 13 mph 1018.5mb 60f 60f
7:00 1ft 14s 11 13 mph 1019mb 61f 60f
6:00 1ft 14s 9 11 mph 1019.1mb 60f 60f
5:00 1ft 14s 9 11 mph 1019.5mb 61f 59f
4:00 1ft 14s 9 9 mph 1019.5mb 61f 59f
3:00 1ft 14s 7 9 mph 1019.5mb 61f 59f
2:00 1ft 14s 4 7 mph 1019.3mb 60f 59f
1:00 1ft 14s 7 9 mph 1019.3mb 60f 58f
12:00 1ft 14s 9 9 mph 1018.9mb 59f 58f
11:00 1.3ft 14s 7 9 mph 1018.4mb 59f 58f
10:00 1.3ft 14s 4 4 mph 1018.3mb 59f 58f
9:00 1.3ft 17s 4 7 mph 1017.8mb 59f 58f
8:00 1.3ft 14s 2 2 mph 1017.4mb 59f 58f
7:00 1.3ft 6s 4 4 mph 1017.3mb 59f 58f
6:00 1ft 8s 7 9 mph 1017.2mb 59f 58f
5:00 1ft 14s 7 9 mph 1017.1mb 59f 58f
4:00 1ft 15s 9 9 mph 1016.9mb 59f 58f
3:00 1ft 15s 7 9 mph 1016.8mb 59f 58f
2:00 1ft 15s 7 7 mph 1016.9mb 59f 58f
1:00 1ft 15s 7 7 mph 1016.9mb 59f 58f
12:00 1.3ft 15s 4 7 mph 1016.9mb 59f 58f
mié 07/19 11:00 1.3ft 9s 4 4 mph 1017.1mb 59f 58f
10:00 1.3ft 13s 7 9 mph 1017mb 59f 58f
9:00 1.3ft 4s 7 9 mph 1017.2mb 59f 58f
8:00 1.3ft 4s 4 4 mph 1017.4mb 59f 59f
7:00 1.3ft 4s 4 4 mph 1017.9mb 60f 59f
6:00 1.3ft 8s 7 9 mph 1018.3mb 60f 58f
5:00 1.3ft 14s 9 9 mph 1018.5mb 60f 58f
4:00 1.3ft 9s 9 11 mph 1018.9mb 60f 58f
3:00 1.3ft 9s 4 7 mph 1019.1mb 60f 59f
2:00 1.6ft 9s 7 7 mph 1019.4mb 60f 58f
1:00 1.6ft 9s 11 13 mph 1019.5mb 59f 58f
12:00 1.6ft 9s 11 13 mph 1019.3mb 59f 58f
11:00 1.6ft 4s 4 7 mph 1019.2mb 59f 58f
10:00 1.6ft 4s 4 4 mph 1018.7mb 58f 58f
9:00 2ft 4s 2 2 mph 1018.5mb 58f 58f
8:00 2ft 5s 4 4 mph 1018.2mb 58f 58f
7:00 1.6ft 5s 4 7 mph 1018mb 58f 58f
6:00 1.6ft 5s 7 7 mph 1017.9mb 58f 57f
5:00 2ft 5s 7 7 mph 1017.9mb 58f 57f
4:00 2ft 5s 4 7 mph 1017.7mb 58f 57f
3:00 2ft 5s 7 9 mph 1017.7mb 58f 57f
2:00 2ft 5s 9 9 mph 1017.6mb 58f 57f
1:00 2ft 6s 11 13 mph 1017.5mb 58f 57f
12:00 2ft 6s 13 13 mph 1017.4mb 58f 57f
mar 07/18 11:00 2.5ft 6s 9 11 mph 1017.4mb 58f 57f
10:00 2.5ft 5s 9 11 mph 1017.2mb 58f 57f
9:00 3ft 5s 11 13 mph 1016.9mb 58f 57f
8:00 3ft 6s 11 13 mph 1017mb 58f 58f
7:00 2.5ft 4s 13 18 mph 1017.2mb 58f 58f
6:00 2.5ft 4s 13 16 mph 1017.5mb 58f 58f
5:00 2.5ft 4s 16 18 mph 1017.8mb 58f 57f
4:00 2.5ft 6s 13 16 mph 1018.2mb 58f 57f
3:00 2.5ft 5s 13 18 mph 1018.1mb 58f 57f
2:00 2.5ft 5s 13 16 mph 1018.3mb 58f 57f
1:00 2.5ft 5s 13 16 mph 1018.2mb 58f 57f
12:00 2.5ft 5s 9 11 mph 1018.1mb 58f 57f
9:00 3.5ft 5s 11 13 mph 1017.7mb 57f 57f
8:00 3.5ft 5s 13 16 mph 1017.6mb 57f 57f
7:00 3ft 5s 13 16 mph 1017.5mb 57f 57f
6:00 3ft 5s 13 16 mph 1017.7mb 57f 57f
5:00 3ft 6s 13 16 mph 1017.8mb 57f 57f
4:00 3ft 5s 13 16 mph 1018.1mb 57f 57f
3:00 3ft 5s 11 16 mph 1018.3mb 57f 57f
2:00 3ft 5s 13 18 mph 1018.6mb 57f 57f
1:00 3ft 4s 16 18 mph 1018.8mb 57f 57f
12:00 3ft 5s 16 18 mph 1018.9mb 57f 57f
lun 07/17 11:00 2.5ft 4s 16 18 mph 1019.3mb 57f 57f
10:00 2.5ft 4s 16 20 mph 1019.7mb 58f 58f
9:00 2.5ft 4s 16 18 mph 1019.6mb 58f 58f
8:00 2.5ft 4s 16 18 mph 1019.8mb 58f 58f
7:00 2.5ft 4s 16 18 mph 1020.3mb 58f 58f
6:00 2.5ft 3s 16 18 mph 1020.8mb 58f 58f
5:00 2ft 3s 16 20 mph 1021.1mb 58f 58f
4:00 1.6ft 13s 16 18 mph 1021.7mb 58f 57f
3:00 1.6ft 14s 13 16 mph 1022.2mb 58f 56f
2:00 1.6ft 15s 11 13 mph 1022.6mb 58f 56f
1:00 1.6ft 14s 11 13 mph 1022.7mb 58f 55f
12:00 1.6ft 14s 9 11 mph 1022.8mb 57f 55f
11:00 1.6ft 14s 9 13 mph 1022.9mb 57f 55f